TimeEDT,TemperatureF,Dew PointF,Humidity,Sea Level PressureIn,VisibilityMPH,Wind Direction,Wind SpeedMPH,Gust SpeedMPH,PrecipitationIn,Events,Conditions,WindDirDegrees,DateUTC
12:15 AM,44.6,39.2,81,30.35,10.0,NNE,4.6,-,N/A,,Clear,30,2013-05-03 04:15:00
12:35 AM,44.6,39.2,81,30.35,10.0,Calm,Calm,-,N/A,,Clear,0,2013-05-03 04:35:00
12:55 AM,44.6,39.2,81,30.35,10.0,NE,4.6,-,N/A,,Clear,40,2013-05-03 04:55:00
1:15 AM,44.6,39.2,81,30.34,10.0,Calm,Calm,-,N/A,,Clear,0,2013-05-03 05:15:00
1:35 AM,44.6,39.2,81,30.35,10.0,Calm,Calm,-,N/A,,Clear,0,2013-05-03 05:35:00
1:55 AM,42.8,39.2,87,30.35,10.0,Calm,Calm,-,N/A,,Clear,0,2013-05-03 05:55:00
2:15 AM,44.6,39.2,81,30.34,10.0,Calm,Calm,-,N/A,,Clear,0,2013-05-03 06:15:00
2:35 AM,44.6,39.2,81,30.35,10.0,NNE,4.6,-,N/A,,Clear,30,2013-05-03 06:35:00
2:55 AM,44.6,41.0,87,30.34,10.0,NE,4.6,-,N/A,,Clear,40,2013-05-03 06:55:00
3:15 AM,44.6,39.2,81,30.35,10.0,NE,5.8,-,N/A,,Clear,40,2013-05-03 07:15:00
3:35 AM,48.2,42.8,82,30.35,10.0,NE,6.9,-,N/A,,Clear,50,2013-05-03 07:35:00
3:55 AM,48.2,42.8,82,30.35,10.0,NE,5.8,-,N/A,,Clear,50,2013-05-03 07:55:00
4:15 AM,48.2,41.0,76,30.35,10.0,ENE,9.2,-,N/A,,Clear,60,2013-05-03 08:15:00
4:35 AM,50.0,42.8,76,30.35,10.0,ENE,10.4,18.4,N/A,,Clear,70,2013-05-03 08:35:00
4:55 AM,51.8,41.0,67,30.36,10.0,ENE,11.5,-,N/A,,Clear,60,2013-05-03 08:55:00
5:15 AM,51.8,42.8,71,30.36,10.0,ENE,13.8,19.6,N/A,,Clear,70,2013-05-03 09:15:00
5:35 AM,51.8,44.6,76,30.36,10.0,ENE,12.7,17.3,N/A,,Clear,60,2013-05-03 09:35:00
5:55 AM,51.8,44.6,76,30.36,10.0,NE,10.4,-,N/A,,Clear,50,2013-05-03 09:55:00
6:15 AM,51.8,44.6,76,30.36,10.0,NE,13.8,-,N/A,,Mostly Cloudy,50,2013-05-03 10:15:00
6:35 AM,51.8,44.6,76,30.37,10.0,NE,12.7,18.4,N/A,,Overcast,50,2013-05-03 10:35:00
6:55 AM,51.8,44.6,76,30.38,10.0,NE,12.7,20.7,N/A,,Overcast,50,2013-05-03 10:55:00
7:15 AM,51.8,44.6,76,30.38,10.0,ENE,16.1,25.3,N/A,,Mostly Cloudy,60,2013-05-03 11:15:00
7:35 AM,51.8,42.8,71,30.39,10.0,ENE,13.8,20.7,N/A,,Clear,60,2013-05-03 11:35:00
7:55 AM,53.6,39.2,58,30.39,10.0,ENE,18.4,27.6,N/A,,Clear,60,2013-05-03 11:55:00
8:15 AM,53.6,41.0,62,30.40,10.0,NE,23.0,29.9,N/A,,Clear,50,2013-05-03 12:15:00
8:35 AM,51.8,42.8,71,30.40,10.0,NE,20.7,28.8,N/A,,Scattered Clouds,50,2013-05-03 12:35:00
8:55 AM,51.8,41.0,67,30.41,10.0,NE,19.6,29.9,N/A,,Mostly Cloudy,50,2013-05-03 12:55:00
9:15 AM,-9999,-9999,N/A,30.40,10.0,ENE,20.7,27.6,N/A,,Scattered Clouds,70,2013-05-03 13:15:00
9:35 AM,53.6,39.2,58,30.40,10.0,ENE,19.6,26.5,N/A,,Clear,70,2013-05-03 13:35:00
9:55 AM,53.6,39.2,58,30.40,10.0,ENE,20.7,27.6,N/A,,Clear,60,2013-05-03 13:55:00
10:15 AM,53.6,39.2,58,30.41,10.0,ENE,20.7,31.1,N/A,,Clear,70,2013-05-03 14:15:00
10:35 AM,53.6,37.4,54,30.42,10.0,ENE,17.3,28.8,N/A,,Clear,60,2013-05-03 14:35:00
10:55 AM,55.4,39.2,54,30.42,10.0,ENE,19.6,27.6,N/A,,Clear,60,2013-05-03 14:55:00
11:15 AM,55.4,39.2,54,30.42,10.0,ENE,19.6,26.5,N/A,,Clear,70,2013-05-03 15:15:00
11:35 AM,55.4,37.4,51,30.43,10.0,ENE,21.9,26.5,N/A,,Clear,60,2013-05-03 15:35:00
11:55 AM,53.6,35.6,51,30.43,10.0,East,18.4,26.5,N/A,,Clear,80,2013-05-03 15:55:00
12:15 PM,53.6,39.2,58,30.43,10.0,ENE,18.4,27.6,N/A,,Scattered Clouds,60,2013-05-03 16:15:00
12:35 PM,53.6,37.4,54,30.43,10.0,ENE,18.4,29.9,N/A,,Scattered Clouds,60,2013-05-03 16:35:00
12:55 PM,53.6,39.2,58,30.42,10.0,ENE,19.6,26.5,N/A,,Overcast,70,2013-05-03 16:55:00
1:15 PM,53.6,39.2,58,30.42,10.0,ENE,21.9,26.5,N/A,,Mostly Cloudy,70,2013-05-03 17:15:00
1:35 PM,53.6,37.4,54,30.42,10.0,ENE,16.1,29.9,N/A,,Mostly Cloudy,60,2013-05-03 17:35:00
1:55 PM,53.6,37.4,54,30.41,10.0,ENE,19.6,27.6,N/A,,Mostly Cloudy,60,2013-05-03 17:55:00
2:15 PM,53.6,37.4,54,30.41,10.0,ENE,12.7,26.5,N/A,,Partly Cloudy,70,2013-05-03 18:15:00
2:35 PM,53.6,37.4,54,30.41,10.0,ENE,17.3,26.5,N/A,,Clear,60,2013-05-03 18:35:00
2:55 PM,53.6,39.2,58,30.40,10.0,ENE,15.0,24.2,N/A,,Clear,70,2013-05-03 18:55:00
3:15 PM,53.6,37.4,54,30.40,10.0,East,19.6,26.5,N/A,,Scattered Clouds,80,2013-05-03 19:15:00
3:35 PM,53.6,37.4,54,30.39,10.0,ENE,16.1,24.2,N/A,,Mostly Cloudy,60,2013-05-03 19:35:00
3:55 PM,53.6,39.2,58,30.39,10.0,East,16.1,23.0,N/A,,Mostly Cloudy,80,2013-05-03 19:55:00
4:15 PM,53.6,39.2,58,30.39,10.0,East,13.8,20.7,N/A,,Overcast,80,2013-05-03 20:15:00
4:35 PM,51.8,39.2,62,30.39,10.0,ENE,13.8,23.0,N/A,,Overcast,60,2013-05-03 20:35:00
4:55 PM,51.8,39.2,62,30.39,10.0,East,10.4,17.3,N/A,,Overcast,80,2013-05-03 20:55:00
5:15 PM,53.6,39.2,58,30.38,10.0,ENE,12.7,-,N/A,,Scattered Clouds,60,2013-05-03 21:15:00
5:35 PM,53.6,39.2,58,30.38,10.0,East,11.5,19.6,N/A,,Scattered Clouds,90,2013-05-03 21:35:00
5:55 PM,51.8,39.2,62,30.38,10.0,ENE,11.5,-,N/A,,Partly Cloudy,70,2013-05-03 21:55:00
6:15 PM,51.8,39.2,62,30.37,10.0,East,12.7,20.7,N/A,,Clear,80,2013-05-03 22:15:00
6:35 PM,51.8,39.2,62,30.37,10.0,ENE,10.4,16.1,N/A,,Partly Cloudy,60,2013-05-03 22:35:00
6:55 PM,51.8,39.2,62,30.37,10.0,East,12.7,-,N/A,,Partly Cloudy,80,2013-05-03 22:55:00
7:15 PM,50.0,39.2,66,30.37,10.0,ENE,10.4,-,N/A,,Mostly Cloudy,70,2013-05-03 23:15:00
7:35 PM,50.0,39.2,66,30.37,10.0,ENE,10.4,19.6,N/A,,Mostly Cloudy,70,2013-05-03 23:35:00
7:55 PM,50.0,39.2,66,30.37,10.0,NE,9.2,-,N/A,,Overcast,50,2013-05-03 23:55:00
8:15 PM,50.0,41.0,71,30.37,10.0,ENE,10.4,16.1,N/A,,Overcast,70,2013-05-04 00:15:00
8:35 PM,48.2,41.0,76,30.37,10.0,ENE,8.1,-,N/A,,Overcast,70,2013-05-04 00:35:00
8:55 PM,50.0,41.0,71,30.38,10.0,ENE,8.1,-,N/A,,Overcast,70,2013-05-04 00:55:00
9:15 PM,48.2,41.0,76,30.38,10.0,East,9.2,17.3,N/A,,Overcast,80,2013-05-04 01:15:00
9:35 PM,48.2,42.8,82,30.38,10.0,ENE,8.1,-,N/A,,Overcast,70,2013-05-04 01:35:00
9:55 PM,48.2,42.8,82,30.38,10.0,ENE,10.4,-,N/A,,Overcast,60,2013-05-04 01:55:00
10:15 PM,48.2,42.8,82,30.38,10.0,ENE,10.4,-,N/A,,Overcast,70,2013-05-04 02:15:00
10:35 PM,48.2,42.8,82,30.37,10.0,ENE,8.1,16.1,N/A,,Overcast,70,2013-05-04 02:35:00
10:55 PM,48.2,42.8,82,30.37,10.0,ENE,9.2,-,N/A,,Overcast,60,2013-05-04 02:55:00
11:15 PM,48.2,42.8,82,30.37,10.0,ENE,8.1,-,N/A,,Overcast,60,2013-05-04 03:15:00
11:35 PM,48.2,42.8,82,30.36,10.0,ENE,8.1,-,N/A,,Overcast,60,2013-05-04 03:35:00
11:55 PM,48.2,42.8,82,30.36,10.0,ENE,10.4,-,N/A,,Overcast,70,2013-05-04 03:55:00